createdAt,value
2022-09-23T00:03:23.629Z,10.91
2022-09-23T00:08:26.048Z,11.30
2022-09-23T00:13:28.183Z,11.26
2022-09-23T00:18:30.317Z,11.73
2022-09-23T00:23:33.259Z,11.18
2022-09-23T00:28:35.991Z,10.18
2022-09-23T00:33:38.307Z,9.59
2022-09-23T00:38:40.398Z,10.95
2022-09-23T00:43:55.361Z,11.07
2022-09-23T00:49:02.234Z,11.49
2022-09-23T00:54:06.836Z,11.20
2022-09-23T00:59:10.533Z,11.26
2022-09-23T01:04:14.844Z,11.27
2022-09-23T01:09:18.128Z,11.59
2022-09-23T01:14:46.773Z,11.44
2022-09-23T01:20:16.736Z,11.38
2022-09-23T01:25:28.253Z,11.48
2022-09-23T01:30:45.633Z,10.57
2022-09-23T01:36:02.838Z,11.22
2022-09-23T01:41:21.118Z,11.34
2022-09-23T01:46:29.728Z,11.29
2022-09-23T01:51:37.624Z,11.27
2022-09-23T01:56:46.326Z,10.85
2022-09-23T02:01:55.840Z,11.30
2022-09-23T02:07:04.115Z,11.10
2022-09-23T02:12:12.856Z,10.80
2022-09-23T02:17:22.974Z,10.00
2022-09-23T02:22:35.519Z,9.80
2022-09-23T02:27:50.307Z,9.88
2022-09-23T02:32:54.824Z,10.30
2022-09-23T02:38:09.034Z,10.45
2022-09-23T02:43:20.303Z,10.94
2022-09-23T02:48:27.519Z,11.22
2022-09-23T02:53:33.920Z,11.32
2022-09-23T02:58:37.207Z,11.34
2022-09-23T03:04:17.810Z,10.98
2022-09-23T03:09:27.297Z,10.95
2022-09-23T03:14:41.784Z,11.15
2022-09-23T03:19:53.987Z,11.06
2022-09-23T03:25:02.655Z,10.39
2022-09-23T03:30:07.297Z,10.64
2022-09-23T03:35:09.922Z,10.89
2022-09-23T03:40:12.093Z,9.34
2022-09-23T03:45:18.686Z,10.78
2022-09-23T03:50:21.427Z,10.47
2022-09-23T03:55:23.630Z,10.95
2022-09-23T04:00:26.775Z,10.65
2022-09-23T04:05:30.482Z,10.55
2022-09-23T04:10:32.586Z,10.71
2022-09-23T04:15:34.866Z,10.95
2022-09-23T04:20:39.413Z,10.21
2022-09-23T04:25:47.894Z,9.04
2022-09-23T04:30:54.881Z,10.05
2022-09-23T04:35:57.027Z,10.25
2022-09-23T04:40:59.453Z,10.24
2022-09-23T04:46:04.254Z,10.37
2022-09-23T04:51:12.318Z,9.16
2022-09-23T04:56:20.144Z,10.32
2022-09-23T05:01:25.424Z,9.90
2022-09-23T05:06:27.653Z,10.13
2022-09-23T05:11:31.748Z,9.28
2022-09-23T05:16:34.121Z,10.15
2022-09-23T05:21:37.878Z,10.15
2022-09-23T05:26:40.164Z,10.22
2022-09-23T05:31:42.313Z,10.14
2022-09-23T05:36:44.777Z,10.37
2022-09-23T05:41:46.933Z,10.02
2022-09-23T05:46:49.341Z,10.17
2022-09-23T05:51:51.565Z,10.13
2022-09-23T05:56:53.662Z,10.63
2022-09-23T06:01:56.858Z,10.75
2022-09-23T06:07:02.913Z,10.71
2022-09-23T06:12:06.490Z,10.68
2022-09-23T06:17:08.769Z,10.69
2022-09-23T06:22:12.004Z,9.56
2022-09-23T06:27:14.111Z,9.17
2022-09-23T06:32:16.759Z,9.96
2022-09-23T06:37:20.644Z,10.67
2022-09-23T06:42:23.137Z,11.25
2022-09-23T06:47:25.332Z,11.62
2022-09-23T06:52:28.683Z,11.72
2022-09-23T06:57:31.674Z,11.87
2022-09-23T07:02:33.986Z,12.06
2022-09-23T07:07:37.578Z,11.62
2022-09-23T07:12:39.761Z,10.90
2022-09-23T07:17:43.230Z,11.08
2022-09-23T07:22:52.654Z,11.67
2022-09-23T07:27:56.222Z,12.06
2022-09-23T07:32:58.295Z,12.59
2022-09-23T07:38:00.876Z,11.97
2022-09-23T07:43:04.743Z,12.79
2022-09-23T07:48:06.947Z,13.04
2022-09-23T07:53:09.170Z,12.65
2022-09-23T07:58:11.330Z,13.37
2022-09-23T08:03:14.913Z,13.15
2022-09-23T08:08:17.439Z,13.37
2022-09-23T08:13:19.569Z,13.61
2022-09-23T08:18:21.843Z,14.17
2022-09-23T08:23:24.238Z,14.95
2022-09-23T08:28:27.286Z,15.19
2022-09-23T08:33:29.823Z,14.97
2022-09-23T08:38:32.175Z,15.45
2022-09-23T08:43:36.593Z,15.57
2022-09-23T08:48:44.490Z,16.17
2022-09-23T08:53:47.706Z,17.11
2022-09-23T08:59:07.973Z,15.87
2022-09-23T09:04:22.229Z,17.56
2022-09-23T09:09:30.453Z,17.98
2022-09-23T09:15:01.335Z,15.24
2022-09-23T09:20:18.974Z,12.79
2022-09-23T09:25:34.143Z,12.07
2022-09-23T09:30:36.910Z,11.51
2022-09-23T09:36:01.913Z,11.18
2022-09-23T09:41:18.425Z,9.68
2022-09-23T09:46:36.557Z,13.32
2022-09-23T09:51:41.320Z,12.52
2022-09-23T09:56:44.871Z,10.97
2022-09-23T10:01:47.408Z,11.54
2022-09-23T10:07:13.554Z,13.41
2022-09-23T10:12:19.294Z,14.24
2022-09-23T10:17:34.104Z,14.77
2022-09-23T10:22:39.856Z,11.28
2022-09-23T10:27:42.017Z,9.76
2022-09-23T10:32:45.233Z,14.78
2022-09-23T10:37:53.285Z,14.57
2022-09-23T10:43:58.212Z,14.64
2022-09-23T10:49:10.150Z,13.63
2022-09-23T10:54:33.715Z,11.42
2022-09-23T10:59:57.698Z,12.14
2022-09-23T11:05:12.093Z,12.49
2022-09-23T11:10:35.332Z,10.87
2022-09-23T11:16:07.216Z,12.17
2022-09-23T11:21:40.135Z,16.01
2022-09-23T11:26:57.837Z,10.90
2022-09-23T11:32:48.119Z,13.24
2022-09-23T11:38:06.639Z,12.74
2022-09-23T11:43:26.873Z,12.97
2022-09-23T11:48:51.105Z,13.02
2022-09-23T11:54:10.011Z,13.47
2022-09-23T11:59:40.522Z,16.85
2022-09-23T12:04:57.096Z,16.28
2022-09-23T12:10:06.233Z,17.72
2022-09-23T12:15:20.803Z,16.99
2022-09-23T12:20:56.135Z,13.64
2022-09-23T12:26:03.138Z,14.23
2022-09-23T12:31:11.368Z,17.00
2022-09-23T12:36:13.771Z,17.82
2022-09-23T12:41:27.423Z,16.26
2022-09-23T12:46:29.616Z,13.95
2022-09-23T12:51:34.820Z,13.62
2022-09-23T12:56:36.838Z,17.90
2022-09-23T13:01:39.439Z,18.19
2022-09-23T13:06:50.834Z,17.05
2022-09-23T13:12:01.730Z,18.43
2022-09-23T13:17:04.644Z,13.25
2022-09-23T13:22:24.358Z,14.46
2022-09-23T13:27:33.929Z,18.23
2022-09-23T13:32:41.941Z,14.60
2022-09-23T13:37:56.984Z,18.20
2022-09-23T13:43:32.149Z,21.14
2022-09-23T13:48:43.679Z,20.38
2022-09-23T13:53:53.759Z,17.51
2022-09-23T13:59:26.526Z,20.38
2022-09-23T14:04:28.877Z,15.34
2022-09-23T14:09:33.565Z,16.15
2022-09-23T14:14:38.555Z,18.30
2022-09-23T14:19:42.648Z,16.49
2022-09-23T14:24:44.910Z,18.67
2022-09-23T14:29:49.477Z,18.27
2022-09-23T14:35:00.870Z,17.58
2022-09-23T14:40:09.248Z,16.49
2022-09-23T14:45:30.245Z,17.73
2022-09-23T14:50:48.673Z,17.86
2022-09-23T14:56:07.295Z,16.51
2022-09-23T15:01:32.481Z,17.76
2022-09-23T15:06:40.516Z,15.11
2022-09-23T15:11:42.769Z,16.54
2022-09-23T15:16:47.467Z,17.49
2022-09-23T15:21:53.735Z,19.21
2022-09-23T15:26:58.138Z,16.81
2022-09-23T15:32:00.541Z,18.04
2022-09-23T15:37:03.241Z,17.43
2022-09-23T15:42:07.273Z,17.62
2022-09-23T15:47:18.976Z,17.03
2022-09-23T15:52:22.942Z,14.71
2022-09-23T15:57:26.126Z,17.96
2022-09-23T16:02:29.021Z,17.53
2022-09-23T16:07:31.225Z,18.24
2022-09-23T16:12:33.401Z,18.34
2022-09-23T16:17:36.711Z,19.30
2022-09-23T16:22:39.530Z,20.10
2022-09-23T16:27:41.804Z,20.01
2022-09-23T16:32:44.222Z,19.32
2022-09-23T16:37:49.129Z,19.93
2022-09-23T16:42:55.067Z,18.73
2022-09-23T16:47:58.010Z,18.90
2022-09-23T16:53:00.426Z,18.23
2022-09-23T16:58:05.292Z,17.88
2022-09-23T17:03:31.130Z,18.17
2022-09-23T17:08:33.778Z,18.44
2022-09-23T17:13:35.883Z,17.52
2022-09-23T17:18:41.290Z,18.14
2022-09-23T17:23:43.483Z,15.98
2022-09-23T17:28:45.735Z,16.04
2022-09-23T17:33:48.894Z,17.13
2022-09-23T17:38:54.306Z,16.85
2022-09-23T17:43:58.706Z,18.04
2022-09-23T17:49:01.855Z,18.29
2022-09-23T17:54:04.221Z,17.41
2022-09-23T17:59:06.529Z,18.52
2022-09-23T18:04:08.842Z,17.97
2022-09-23T18:09:11.414Z,18.14
2022-09-23T18:14:22.242Z,18.31
2022-09-23T18:19:24.989Z,18.37
2022-09-23T18:24:32.820Z,18.16
2022-09-23T18:29:36.291Z,18.09
2022-09-23T18:34:38.468Z,17.64
2022-09-23T18:39:41.886Z,18.17
2022-09-23T18:44:44.706Z,17.52
2022-09-23T18:50:05.377Z,18.26
2022-09-23T18:55:08.224Z,17.30
2022-09-23T19:00:10.989Z,16.62
2022-09-23T19:05:13.182Z,16.38
2022-09-23T19:10:15.457Z,16.06
2022-09-23T19:15:20.163Z,16.29
2022-09-23T19:20:22.858Z,15.55
2022-09-23T19:25:25.054Z,16.42
2022-09-23T19:30:27.194Z,16.15
2022-09-23T19:35:29.623Z,16.47
2022-09-23T19:40:31.983Z,16.72
2022-09-23T19:45:34.429Z,16.52
2022-09-23T19:50:40.055Z,16.04
2022-09-23T19:55:44.397Z,16.68
2022-09-23T20:00:46.563Z,16.36
2022-09-23T20:05:58.267Z,16.71
2022-09-23T20:11:15.656Z,16.17
2022-09-23T20:16:19.766Z,16.57
2022-09-23T20:21:22.196Z,16.04
2022-09-23T20:26:53.843Z,15.67
2022-09-23T20:31:57.117Z,16.10
2022-09-23T20:37:00.329Z,16.18
2022-09-23T20:42:02.964Z,16.64
2022-09-23T20:47:05.151Z,16.57
2022-09-23T20:52:07.286Z,16.12
2022-09-23T20:57:12.176Z,15.94
2022-09-23T21:02:14.535Z,15.66
2022-09-23T21:07:17.506Z,16.12
2022-09-23T21:12:19.703Z,15.79
2022-09-23T21:17:21.934Z,15.46
2022-09-23T21:22:24.106Z,15.39
2022-09-23T21:27:27.210Z,15.91
2022-09-23T21:32:29.498Z,15.76
2022-09-23T21:37:31.840Z,15.31
2022-09-23T21:42:34.148Z,16.15
2022-09-23T21:47:38.475Z,15.95
2022-09-23T21:52:40.616Z,16.18
2022-09-23T21:57:44.256Z,16.45
2022-09-23T22:02:46.383Z,15.10
2022-09-23T22:07:48.517Z,14.49
2022-09-23T22:12:50.631Z,15.32
2022-09-23T22:17:52.948Z,15.40
2022-09-23T22:22:56.038Z,15.00
2022-09-23T22:28:16.566Z,15.45
2022-09-23T22:33:18.658Z,15.64
2022-09-23T22:38:20.772Z,15.09
2022-09-23T22:43:23.241Z,15.35
2022-09-23T22:48:25.905Z,16.15
2022-09-23T22:53:28.488Z,15.42
2022-09-23T22:58:32.512Z,15.55
2022-09-23T23:03:35.689Z,14.98
2022-09-23T23:08:37.919Z,15.48
2022-09-23T23:13:41.997Z,16.21
2022-09-23T23:18:45.564Z,16.13
2022-09-23T23:23:50.597Z,16.08
2022-09-23T23:28:54.183Z,15.45
2022-09-23T23:33:56.365Z,16.22
2022-09-23T23:38:59.506Z,15.73
2022-09-23T23:44:02.242Z,15.92
2022-09-23T23:49:05.037Z,16.51
2022-09-23T23:54:07.448Z,16.21
2022-09-23T23:59:09.692Z,15.08
